Lewistown Municipal Airport
KLWT : now visible

Airfield :











YOU CAN JOIN US ON...

 
LOGIN :

Register | Disclaimer

   EN    FR    IT 

 









Legend :    VFR   Marginal VFR   IFR   Intensive IFR   Very Intensive IFR
Visi :
Ceiling :
>= 8 km
>= 3000ft
5 to 8 km
1000 to 3000 ft
1500m to 5 km
500 to 1000 ft
800 to 1500m
200 to 500 ft
< 800m
< 200 ft
Symbols :   Thunderstorms  Fog  Heavy snow  Heavy precipitations  Wind > 20 kt






- Airport Elevation : 4170 ft
- IATA code : LWT


KLWT - Lewistown Municipal

CURRENT METAR :
  • 260354Z AUTO 28005KT 10SM -RA OVC015 07/06 A2957 RMK AO2 SLP008 P0001 T00720061

EXPIRED METARs :
  • 260347Z AUTO 27004KT 10SM -RA FEW008 OVC015 07/06 A2957 RMK AO2 P0001 T00720061
  • 260254Z AUTO 28005KT 9SM -RA OVC011 07/06 A2958 RMK AO2 SLP013 P0006 60017 T00720061 51010
  • 260234Z AUTO 28005KT 8SM -RA BKN011 OVC015 07/07 A2958 RMK AO2 P0004 T00720067
  • 260154Z AUTO 30007KT 8SM -RA SCT012 OVC018 08/07 A2958 RMK AO2 SLP013 P0007 T00780067

TAF KLWT
Valid from the 26 at 01:00 until the 27 at 00:00 UTC


260052Z 2601/2624 VRB06KT 5SM -RA BR SCT015 OVC025
TEMPO 2602/2606 3SM RA BR BKN012
FM260900 28006KT 5SM BR SCT008 OVC015
FM261500 27011KT P6SM SCT025 BKN090 BKN180
FM261900 29018G28KT P6SM SCT100
KZLC FIR / North America



MET'MAP, your aeronautical weather chart ! - Copyright ORBIFLY December 2007 - Disclaimer

ORBIFLY MET'MAP TEAM :

Programming & Development : Alexandra Zaïnal
Concept & original design : Baudouin d'Aumeries
Assistance for programming : Marc-Olivier Méhu
Technical & hardware support : Manuel Goepfert

Contact : metmap@orbifly.com




SOURCES & CREDITS :

   NOAA       Earth
Advisory